Terminal Aerodrome Forecast
Issued by NWS Northern Indiana

Home | Current Version | Previous Version | Graphics & Text | Print | Product List | Glossary On
Versions: 1 2 3 4 5 6 7 8 9 10 11 12 13 14 15 16 17
636
FTUS43 KIWX 271735
TAFFWA
TAF
KFWA 271735Z 2718/2818 26010KT P6SM VCTS SCT011 BKN025CB OVC060
     FM272300 05005KT P6SM VCSH BKN100
     FM280200 05005KT P6SM SCT140
     FM281300 03008KT P6SM OVC020
     FM281700 03010KT P6SM BKN060=

USA.gov is the U.S. government's official web portal to all federal, state and local government web resources and services.